Terminal Aerodrome Forecast
Issued by NWS Jackson, MS

Home | Current Version | Previous Version | Text Only | Print | Product List | Glossary On
Versions: 1 2 3 4 5 6 7 8 9 10 11 12 13 14 15 16 17 18 19 20 21 22 23
526
FTUS44 KJAN 201148
TAFJAN
TAF
KJAN 201148Z 2012/2112 13004KT P6SM SKC
     FM201700 20005KT P6SM FEW080
     FM210500 30008KT P6SM VCSH SCT015 BKN050 OVC100
     FM210800 30003KT P6SM SCT015=

USA.gov is the U.S. government's official web portal to all federal, state and local government web resources and services.